sensor_id;sensor_type;location;lat;lon;timestamp;P1;durP1;ratioP1;P2;durP2;ratioP2
13834;SDS011;6988;52.614;13.500;2023-05-29T00:01:12;8.37;;;3.60;;
13834;SDS011;6988;52.614;13.500;2023-05-29T00:06:08;7.27;;;3.33;;
13834;SDS011;6988;52.614;13.500;2023-05-29T00:11:00;8.47;;;3.37;;
13834;SDS011;6988;52.614;13.500;2023-05-29T00:15:54;7.17;;;3.57;;
13834;SDS011;6988;52.614;13.500;2023-05-29T00:20:48;8.37;;;3.93;;
13834;SDS011;6988;52.614;13.500;2023-05-29T00:25:40;8.67;;;4.10;;
13834;SDS011;6988;52.614;13.500;2023-05-29T00:30:31;7.47;;;4.03;;
13834;SDS011;6988;52.614;13.500;2023-05-29T00:35:23;8.13;;;4.10;;
13834;SDS011;6988;52.614;13.500;2023-05-29T00:40:17;7.03;;;3.73;;
13834;SDS011;6988;52.614;13.500;2023-05-29T00:45:09;7.73;;;3.77;;
13834;SDS011;6988;52.614;13.500;2023-05-29T00:50:04;6.93;;;3.43;;
13834;SDS011;6988;52.614;13.500;2023-05-29T00:54:59;8.47;;;3.30;;
13834;SDS011;6988;52.614;13.500;2023-05-29T00:59:53;7.50;;;3.77;;
13834;SDS011;6988;52.614;13.500;2023-05-29T01:04:46;6.40;;;3.33;;
13834;SDS011;6988;52.614;13.500;2023-05-29T01:09:39;8.07;;;3.90;;
13834;SDS011;6988;52.614;13.500;2023-05-29T01:14:33;8.57;;;3.80;;
13834;SDS011;6988;52.614;13.500;2023-05-29T01:19:59;7.50;;;3.37;;
13834;SDS011;6988;52.614;13.500;2023-05-29T01:25:08;6.87;;;3.97;;
13834;SDS011;6988;52.614;13.500;2023-05-29T01:30:10;10.20;;;3.97;;
13834;SDS011;6988;52.614;13.500;2023-05-29T01:35:05;8.47;;;4.40;;
13834;SDS011;6988;52.614;13.500;2023-05-29T01:39:58;8.30;;;4.27;;
13834;SDS011;6988;52.614;13.500;2023-05-29T01:44:51;8.30;;;3.67;;
13834;SDS011;6988;52.614;13.500;2023-05-29T01:49:44;9.53;;;4.20;;
13834;SDS011;6988;52.614;13.500;2023-05-29T01:54:41;9.80;;;4.00;;
13834;SDS011;6988;52.614;13.500;2023-05-29T01:59:33;8.47;;;3.77;;
13834;SDS011;6988;52.614;13.500;2023-05-29T02:04:26;7.20;;;3.80;;
13834;SDS011;6988;52.614;13.500;2023-05-29T02:09:20;8.77;;;3.63;;
13834;SDS011;6988;52.614;13.500;2023-05-29T02:14:13;6.93;;;3.60;;
13834;SDS011;6988;52.614;13.500;2023-05-29T02:19:06;6.07;;;3.60;;
13834;SDS011;6988;52.614;13.500;2023-05-29T02:23:58;9.27;;;3.80;;
13834;SDS011;6988;52.614;13.500;2023-05-29T02:28:51;6.93;;;4.10;;
13834;SDS011;6988;52.614;13.500;2023-05-29T02:33:44;6.27;;;3.70;;
13834;SDS011;6988;52.614;13.500;2023-05-29T02:38:36;8.17;;;4.00;;
13834;SDS011;6988;52.614;13.500;2023-05-29T02:43:27;9.10;;;3.70;;
13834;SDS011;6988;52.614;13.500;2023-05-29T02:48:21;10.43;;;4.27;;
13834;SDS011;6988;52.614;13.500;2023-05-29T02:53:13;8.73;;;4.43;;
13834;SDS011;6988;52.614;13.500;2023-05-29T03:02:59;7.87;;;3.90;;
13834;SDS011;6988;52.614;13.500;2023-05-29T03:07:52;6.80;;;3.63;;
13834;SDS011;6988;52.614;13.500;2023-05-29T03:12:44;7.53;;;3.73;;
13834;SDS011;6988;52.614;13.500;2023-05-29T03:17:37;7.97;;;4.50;;
13834;SDS011;6988;52.614;13.500;2023-05-29T03:22:33;6.57;;;3.70;;
13834;SDS011;6988;52.614;13.500;2023-05-29T03:27:27;7.90;;;4.03;;
13834;SDS011;6988;52.614;13.500;2023-05-29T03:32:26;4.90;;;3.30;;
13834;SDS011;6988;52.614;13.500;2023-05-29T03:37:18;5.70;;;3.57;;
13834;SDS011;6988;52.614;13.500;2023-05-29T03:42:11;7.23;;;3.27;;
13834;SDS011;6988;52.614;13.500;2023-05-29T03:47:04;7.23;;;3.90;;
13834;SDS011;6988;52.614;13.500;2023-05-29T03:51:59;7.23;;;3.70;;
13834;SDS011;6988;52.614;13.500;2023-05-29T03:56:51;6.43;;;3.80;;
13834;SDS011;6988;52.614;13.500;2023-05-29T04:01:43;7.13;;;3.93;;
13834;SDS011;6988;52.614;13.500;2023-05-29T04:06:36;8.23;;;4.23;;
13834;SDS011;6988;52.614;13.500;2023-05-29T04:11:29;5.93;;;3.50;;
13834;SDS011;6988;52.614;13.500;2023-05-29T04:16:24;6.07;;;3.57;;
13834;SDS011;6988;52.614;13.500;2023-05-29T04:21:15;7.13;;;3.50;;
13834;SDS011;6988;52.614;13.500;2023-05-29T04:26:09;8.77;;;4.27;;
13834;SDS011;6988;52.614;13.500;2023-05-29T04:31:02;6.33;;;3.40;;
13834;SDS011;6988;52.614;13.500;2023-05-29T04:35:55;7.23;;;3.50;;
13834;SDS011;6988;52.614;13.500;2023-05-29T04:40:47;6.90;;;3.90;;
13834;SDS011;6988;52.614;13.500;2023-05-29T04:45:44;6.20;;;3.50;;
13834;SDS011;6988;52.614;13.500;2023-05-29T04:50:36;5.30;;;3.13;;
13834;SDS011;6988;52.614;13.500;2023-05-29T04:55:29;5.10;;;3.30;;
13834;SDS011;6988;52.614;13.500;2023-05-29T05:00:21;6.67;;;3.50;;
13834;SDS011;6988;52.614;13.500;2023-05-29T05:05:15;5.83;;;2.90;;
13834;SDS011;6988;52.614;13.500;2023-05-29T05:10:07;7.00;;;3.07;;
13834;SDS011;6988;52.614;13.500;2023-05-29T05:15:00;7.83;;;3.20;;
13834;SDS011;6988;52.614;13.500;2023-05-29T05:19:52;6.13;;;3.40;;
13834;SDS011;6988;52.614;13.500;2023-05-29T05:24:46;4.27;;;2.70;;
13834;SDS011;6988;52.614;13.500;2023-05-29T05:29:38;5.90;;;2.80;;
13834;SDS011;6988;52.614;13.500;2023-05-29T05:34:30;5.70;;;2.60;;
13834;SDS011;6988;52.614;13.500;2023-05-29T05:39:21;3.60;;;2.60;;
13834;SDS011;6988;52.614;13.500;2023-05-29T05:44:14;5.13;;;2.77;;
13834;SDS011;6988;52.614;13.500;2023-05-29T05:49:10;4.40;;;2.63;;
13834;SDS011;6988;52.614;13.500;2023-05-29T05:54:04;5.53;;;2.63;;
13834;SDS011;6988;52.614;13.500;2023-05-29T05:58:56;5.83;;;2.40;;
13834;SDS011;6988;52.614;13.500;2023-05-29T06:03:49;5.63;;;2.97;;
13834;SDS011;6988;52.614;13.500;2023-05-29T06:08:41;4.13;;;2.30;;
13834;SDS011;6988;52.614;13.500;2023-05-29T06:13:34;3.43;;;2.37;;
13834;SDS011;6988;52.614;13.500;2023-05-29T06:18:34;3.17;;;2.20;;
13834;SDS011;6988;52.614;13.500;2023-05-29T06:23:27;4.30;;;2.30;;
13834;SDS011;6988;52.614;13.500;2023-05-29T06:28:20;5.70;;;2.50;;
13834;SDS011;6988;52.614;13.500;2023-05-29T06:33:13;4.13;;;2.13;;
13834;SDS011;6988;52.614;13.500;2023-05-29T06:38:06;4.40;;;2.40;;
13834;SDS011;6988;52.614;13.500;2023-05-29T06:42:59;5.63;;;2.20;;
13834;SDS011;6988;52.614;13.500;2023-05-29T06:48:09;3.87;;;2.10;;
13834;SDS011;6988;52.614;13.500;2023-05-29T06:53:03;5.17;;;2.20;;
13834;SDS011;6988;52.614;13.500;2023-05-29T06:58:13;3.17;;;1.80;;
13834;SDS011;6988;52.614;13.500;2023-05-29T07:03:05;4.00;;;2.03;;
13834;SDS011;6988;52.614;13.500;2023-05-29T07:07:58;3.17;;;2.00;;
13834;SDS011;6988;52.614;13.500;2023-05-29T07:12:50;2.90;;;1.93;;
13834;SDS011;6988;52.614;13.500;2023-05-29T07:17:44;2.70;;;1.80;;
13834;SDS011;6988;52.614;13.500;2023-05-29T07:22:42;3.70;;;1.70;;
13834;SDS011;6988;52.614;13.500;2023-05-29T07:27:34;2.27;;;1.57;;
13834;SDS011;6988;52.614;13.500;2023-05-29T07:32:26;3.77;;;1.67;;
13834;SDS011;6988;52.614;13.500;2023-05-29T07:37:20;3.27;;;1.73;;
13834;SDS011;6988;52.614;13.500;2023-05-29T07:42:12;5.50;;;2.10;;
13834;SDS011;6988;52.614;13.500;2023-05-29T07:47:06;3.40;;;1.80;;
13834;SDS011;6988;52.614;13.500;2023-05-29T07:52:03;3.23;;;2.03;;
13834;SDS011;6988;52.614;13.500;2023-05-29T07:56:57;4.67;;;2.33;;
13834;SDS011;6988;52.614;13.500;2023-05-29T08:01:49;3.40;;;1.80;;
13834;SDS011;6988;52.614;13.500;2023-05-29T08:07:04;3.60;;;2.07;;
13834;SDS011;6988;52.614;13.500;2023-05-29T08:11:58;2.77;;;1.80;;
13834;SDS011;6988;52.614;13.500;2023-05-29T08:16:51;2.77;;;1.70;;
13834;SDS011;6988;52.614;13.500;2023-05-29T08:21:42;2.72;;;1.90;;
13834;SDS011;6988;52.614;13.500;2023-05-29T08:26:34;2.80;;;1.90;;
13834;SDS011;6988;52.614;13.500;2023-05-29T08:31:29;2.25;;;1.70;;
13834;SDS011;6988;52.614;13.500;2023-05-29T08:36:21;2.05;;;1.83;;
13834;SDS011;6988;52.614;13.500;2023-05-29T08:41:15;4.00;;;2.00;;
13834;SDS011;6988;52.614;13.500;2023-05-29T08:46:14;3.72;;;2.08;;
13834;SDS011;6988;52.614;13.500;2023-05-29T08:51:10;3.75;;;1.98;;
13834;SDS011;6988;52.614;13.500;2023-05-29T08:56:02;3.63;;;1.88;;
13834;SDS011;6988;52.614;13.500;2023-05-29T09:00:54;3.58;;;2.17;;
13834;SDS011;6988;52.614;13.500;2023-05-29T09:05:47;4.05;;;2.25;;
13834;SDS011;6988;52.614;13.500;2023-05-29T09:10:41;5.13;;;2.05;;
13834;SDS011;6988;52.614;13.500;2023-05-29T09:15:34;2.25;;;1.75;;
13834;SDS011;6988;52.614;13.500;2023-05-29T09:20:28;3.55;;;2.20;;
13834;SDS011;6988;52.614;13.500;2023-05-29T09:25:21;4.05;;;2.40;;
13834;SDS011;6988;52.614;13.500;2023-05-29T09:30:17;3.20;;;2.25;;
13834;SDS011;6988;52.614;13.500;2023-05-29T09:35:23;3.38;;;2.33;;
13834;SDS011;6988;52.614;13.500;2023-05-29T09:40:15;4.20;;;1.92;;
13834;SDS011;6988;52.614;13.500;2023-05-29T09:45:07;2.90;;;2.08;;
13834;SDS011;6988;52.614;13.500;2023-05-29T09:50:02;3.72;;;2.20;;
13834;SDS011;6988;52.614;13.500;2023-05-29T09:54:55;3.47;;;2.05;;
13834;SDS011;6988;52.614;13.500;2023-05-29T09:59:48;3.78;;;2.10;;
13834;SDS011;6988;52.614;13.500;2023-05-29T10:04:43;3.38;;;2.10;;
13834;SDS011;6988;52.614;13.500;2023-05-29T10:09:37;6.10;;;2.13;;
13834;SDS011;6988;52.614;13.500;2023-05-29T10:14:38;4.07;;;2.30;;
13834;SDS011;6988;52.614;13.500;2023-05-29T10:19:36;3.20;;;2.30;;
13834;SDS011;6988;52.614;13.500;2023-05-29T10:24:29;5.80;;;2.25;;
13834;SDS011;6988;52.614;13.500;2023-05-29T10:29:26;3.40;;;1.98;;
13834;SDS011;6988;52.614;13.500;2023-05-29T10:34:29;4.40;;;2.30;;
13834;SDS011;6988;52.614;13.500;2023-05-29T10:39:29;3.05;;;2.35;;
13834;SDS011;6988;52.614;13.500;2023-05-29T10:44:40;2.85;;;1.98;;
13834;SDS011;6988;52.614;13.500;2023-05-29T10:49:32;3.38;;;1.98;;
13834;SDS011;6988;52.614;13.500;2023-05-29T10:54:25;3.80;;;2.20;;
13834;SDS011;6988;52.614;13.500;2023-05-29T10:59:17;3.90;;;2.20;;
13834;SDS011;6988;52.614;13.500;2023-05-29T11:09:27;12.75;;;2.10;;
13834;SDS011;6988;52.614;13.500;2023-05-29T11:14:21;4.18;;;2.03;;
13834;SDS011;6988;52.614;13.500;2023-05-29T11:19:13;2.70;;;1.90;;
13834;SDS011;6988;52.614;13.500;2023-05-29T11:24:07;7.30;;;4.60;;
13834;SDS011;6988;52.614;13.500;2023-05-29T11:29:10;5.30;;;2.92;;
13834;SDS011;6988;52.614;13.500;2023-05-29T11:34:03;4.05;;;2.40;;
13834;SDS011;6988;52.614;13.500;2023-05-29T11:38:56;4.53;;;2.70;;
13834;SDS011;6988;52.614;13.500;2023-05-29T11:43:59;3.10;;;2.30;;
13834;SDS011;6988;52.614;13.500;2023-05-29T11:48:52;4.82;;;2.10;;
13834;SDS011;6988;52.614;13.500;2023-05-29T11:53:46;5.85;;;2.28;;
13834;SDS011;6988;52.614;13.500;2023-05-29T11:58:39;5.22;;;2.22;;
13834;SDS011;6988;52.614;13.500;2023-05-29T12:03:38;4.35;;;2.13;;
13834;SDS011;6988;52.614;13.500;2023-05-29T12:08:30;5.03;;;2.10;;
13834;SDS011;6988;52.614;13.500;2023-05-29T12:13:22;2.90;;;1.92;;
13834;SDS011;6988;52.614;13.500;2023-05-29T12:18:14;3.20;;;2.10;;
13834;SDS011;6988;52.614;13.500;2023-05-29T12:23:08;4.47;;;2.40;;
13834;SDS011;6988;52.614;13.500;2023-05-29T12:28:02;2.95;;;2.08;;
13834;SDS011;6988;52.614;13.500;2023-05-29T12:32:54;3.38;;;1.90;;
13834;SDS011;6988;52.614;13.500;2023-05-29T12:37:46;4.45;;;2.47;;
13834;SDS011;6988;52.614;13.500;2023-05-29T12:42:41;3.67;;;2.15;;
13834;SDS011;6988;52.614;13.500;2023-05-29T12:47:33;4.32;;;2.22;;
13834;SDS011;6988;52.614;13.500;2023-05-29T12:52:25;3.35;;;2.05;;
13834;SDS011;6988;52.614;13.500;2023-05-29T12:57:17;3.35;;;1.98;;
13834;SDS011;6988;52.614;13.500;2023-05-29T13:02:10;3.72;;;2.30;;
13834;SDS011;6988;52.614;13.500;2023-05-29T13:07:03;3.95;;;2.30;;
13834;SDS011;6988;52.614;13.500;2023-05-29T13:11:55;4.97;;;2.20;;
13834;SDS011;6988;52.614;13.500;2023-05-29T13:16:47;4.43;;;2.05;;
13834;SDS011;6988;52.614;13.500;2023-05-29T13:21:40;3.83;;;2.15;;
13834;SDS011;6988;52.614;13.500;2023-05-29T13:26:38;4.03;;;1.85;;
13834;SDS011;6988;52.614;13.500;2023-05-29T13:31:29;3.58;;;2.20;;
13834;SDS011;6988;52.614;13.500;2023-05-29T13:36:21;5.15;;;2.22;;
13834;SDS011;6988;52.614;13.500;2023-05-29T13:41:14;5.75;;;2.20;;
13834;SDS011;6988;52.614;13.500;2023-05-29T13:46:06;6.18;;;2.10;;
13834;SDS011;6988;52.614;13.500;2023-05-29T13:50:58;4.30;;;2.00;;
13834;SDS011;6988;52.614;13.500;2023-05-29T13:55:49;3.95;;;2.20;;
13834;SDS011;6988;52.614;13.500;2023-05-29T14:00:43;5.30;;;2.00;;
13834;SDS011;6988;52.614;13.500;2023-05-29T14:05:34;6.43;;;1.98;;
13834;SDS011;6988;52.614;13.500;2023-05-29T14:10:26;3.60;;;2.10;;
13834;SDS011;6988;52.614;13.500;2023-05-29T14:15:18;5.22;;;2.00;;
13834;SDS011;6988;52.614;13.500;2023-05-29T14:20:11;7.40;;;1.92;;
13834;SDS011;6988;52.614;13.500;2023-05-29T14:25:03;5.60;;;2.00;;
13834;SDS011;6988;52.614;13.500;2023-05-29T14:29:56;3.85;;;1.85;;
13834;SDS011;6988;52.614;13.500;2023-05-29T14:34:48;4.90;;;1.88;;
13834;SDS011;6988;52.614;13.500;2023-05-29T14:39:41;3.85;;;2.10;;
13834;SDS011;6988;52.614;13.500;2023-05-29T14:44:32;4.53;;;2.00;;
13834;SDS011;6988;52.614;13.500;2023-05-29T14:49:24;5.10;;;1.88;;
13834;SDS011;6988;52.614;13.500;2023-05-29T14:54:19;2.97;;;1.67;;
13834;SDS011;6988;52.614;13.500;2023-05-29T14:59:13;5.45;;;1.95;;
13834;SDS011;6988;52.614;13.500;2023-05-29T15:04:05;3.83;;;1.80;;
13834;SDS011;6988;52.614;13.500;2023-05-29T15:08:56;6.13;;;1.85;;
13834;SDS011;6988;52.614;13.500;2023-05-29T15:13:49;4.82;;;2.22;;
13834;SDS011;6988;52.614;13.500;2023-05-29T15:18:43;4.40;;;1.92;;
13834;SDS011;6988;52.614;13.500;2023-05-29T15:23:34;3.65;;;1.95;;
13834;SDS011;6988;52.614;13.500;2023-05-29T15:28:28;7.13;;;1.98;;
13834;SDS011;6988;52.614;13.500;2023-05-29T15:33:20;3.65;;;1.73;;
13834;SDS011;6988;52.614;13.500;2023-05-29T15:38:14;9.38;;;2.58;;
13834;SDS011;6988;52.614;13.500;2023-05-29T15:43:07;9.20;;;2.08;;
13834;SDS011;6988;52.614;13.500;2023-05-29T15:47:59;4.65;;;1.70;;
13834;SDS011;6988;52.614;13.500;2023-05-29T15:52:51;5.30;;;1.67;;
13834;SDS011;6988;52.614;13.500;2023-05-29T15:57:44;4.18;;;1.50;;
13834;SDS011;6988;52.614;13.500;2023-05-29T16:02:38;3.60;;;1.80;;
13834;SDS011;6988;52.614;13.500;2023-05-29T16:07:30;5.72;;;2.00;;
13834;SDS011;6988;52.614;13.500;2023-05-29T16:12:22;3.55;;;1.67;;
13834;SDS011;6988;52.614;13.500;2023-05-29T16:17:15;3.55;;;1.83;;
13834;SDS011;6988;52.614;13.500;2023-05-29T16:22:07;5.57;;;2.30;;
13834;SDS011;6988;52.614;13.500;2023-05-29T16:26:59;4.38;;;1.88;;
13834;SDS011;6988;52.614;13.500;2023-05-29T16:31:53;5.60;;;2.30;;
13834;SDS011;6988;52.614;13.500;2023-05-29T16:36:47;3.95;;;1.70;;
13834;SDS011;6988;52.614;13.500;2023-05-29T16:41:38;5.55;;;1.80;;
13834;SDS011;6988;52.614;13.500;2023-05-29T16:46:31;4.30;;;1.95;;
13834;SDS011;6988;52.614;13.500;2023-05-29T16:51:23;5.07;;;2.20;;
13834;SDS011;6988;52.614;13.500;2023-05-29T16:56:16;8.25;;;2.20;;
13834;SDS011;6988;52.614;13.500;2023-05-29T17:01:09;6.25;;;2.20;;
13834;SDS011;6988;52.614;13.500;2023-05-29T17:06:01;5.80;;;2.08;;
13834;SDS011;6988;52.614;13.500;2023-05-29T17:10:52;6.35;;;2.03;;
13834;SDS011;6988;52.614;13.500;2023-05-29T17:15:46;4.45;;;2.08;;
13834;SDS011;6988;52.614;13.500;2023-05-29T17:20:37;5.23;;;1.90;;
13834;SDS011;6988;52.614;13.500;2023-05-29T17:25:29;3.70;;;1.98;;
13834;SDS011;6988;52.614;13.500;2023-05-29T17:30:21;7.43;;;2.40;;
13834;SDS011;6988;52.614;13.500;2023-05-29T17:35:15;3.85;;;1.63;;
13834;SDS011;6988;52.614;13.500;2023-05-29T17:40:08;3.90;;;1.77;;
13834;SDS011;6988;52.614;13.500;2023-05-29T17:45:03;9.43;;;2.00;;
13834;SDS011;6988;52.614;13.500;2023-05-29T17:49:57;7.93;;;2.03;;
13834;SDS011;6988;52.614;13.500;2023-05-29T17:54:51;7.40;;;2.07;;
13834;SDS011;6988;52.614;13.500;2023-05-29T17:59:43;5.53;;;1.83;;
13834;SDS011;6988;52.614;13.500;2023-05-29T18:04:35;3.83;;;1.97;;
13834;SDS011;6988;52.614;13.500;2023-05-29T18:09:26;7.37;;;2.23;;
13834;SDS011;6988;52.614;13.500;2023-05-29T18:14:20;7.17;;;2.17;;
13834;SDS011;6988;52.614;13.500;2023-05-29T18:19:12;4.93;;;2.07;;
13834;SDS011;6988;52.614;13.500;2023-05-29T18:24:05;9.77;;;2.17;;
13834;SDS011;6988;52.614;13.500;2023-05-29T18:28:58;6.27;;;2.10;;
13834;SDS011;6988;52.614;13.500;2023-05-29T18:33:53;7.57;;;2.50;;
13834;SDS011;6988;52.614;13.500;2023-05-29T18:38:45;4.97;;;1.97;;
13834;SDS011;6988;52.614;13.500;2023-05-29T18:43:36;8.70;;;2.40;;
13834;SDS011;6988;52.614;13.500;2023-05-29T18:48:29;6.37;;;2.03;;
13834;SDS011;6988;52.614;13.500;2023-05-29T18:53:22;4.40;;;1.80;;
13834;SDS011;6988;52.614;13.500;2023-05-29T18:58:14;5.17;;;1.90;;
13834;SDS011;6988;52.614;13.500;2023-05-29T19:03:06;5.97;;;1.80;;
13834;SDS011;6988;52.614;13.500;2023-05-29T19:07:58;5.23;;;1.63;;
13834;SDS011;6988;52.614;13.500;2023-05-29T19:12:56;7.47;;;1.83;;
13834;SDS011;6988;52.614;13.500;2023-05-29T19:17:48;6.20;;;2.00;;
13834;SDS011;6988;52.614;13.500;2023-05-29T19:22:39;3.83;;;2.00;;
13834;SDS011;6988;52.614;13.500;2023-05-29T19:27:31;6.53;;;1.83;;
13834;SDS011;6988;52.614;13.500;2023-05-29T19:32:25;4.00;;;1.33;;
13834;SDS011;6988;52.614;13.500;2023-05-29T19:37:17;4.17;;;1.87;;
13834;SDS011;6988;52.614;13.500;2023-05-29T19:42:09;5.70;;;1.60;;
13834;SDS011;6988;52.614;13.500;2023-05-29T19:47:01;4.30;;;1.50;;
13834;SDS011;6988;52.614;13.500;2023-05-29T19:51:55;3.87;;;1.50;;
13834;SDS011;6988;52.614;13.500;2023-05-29T19:56:48;6.17;;;1.90;;
13834;SDS011;6988;52.614;13.500;2023-05-29T20:01:40;5.57;;;1.90;;
13834;SDS011;6988;52.614;13.500;2023-05-29T20:06:33;4.90;;;1.73;;
13834;SDS011;6988;52.614;13.500;2023-05-29T20:11:28;5.00;;;1.43;;
13834;SDS011;6988;52.614;13.500;2023-05-29T20:16:19;4.57;;;1.60;;
13834;SDS011;6988;52.614;13.500;2023-05-29T20:21:11;3.77;;;1.53;;
13834;SDS011;6988;52.614;13.500;2023-05-29T20:26:04;3.07;;;1.40;;
13834;SDS011;6988;52.614;13.500;2023-05-29T20:30:57;4.10;;;1.47;;
13834;SDS011;6988;52.614;13.500;2023-05-29T20:35:49;3.37;;;1.27;;
13834;SDS011;6988;52.614;13.500;2023-05-29T20:40:41;4.27;;;1.37;;
13834;SDS011;6988;52.614;13.500;2023-05-29T20:45:33;4.17;;;1.50;;
13834;SDS011;6988;52.614;13.500;2023-05-29T20:50:27;3.90;;;1.60;;
13834;SDS011;6988;52.614;13.500;2023-05-29T20:55:19;4.90;;;1.63;;
13834;SDS011;6988;52.614;13.500;2023-05-29T21:00:12;4.67;;;1.70;;
13834;SDS011;6988;52.614;13.500;2023-05-29T21:05:04;5.20;;;1.60;;
13834;SDS011;6988;52.614;13.500;2023-05-29T21:10:00;3.90;;;1.60;;
13834;SDS011;6988;52.614;13.500;2023-05-29T21:14:53;4.67;;;1.67;;
13834;SDS011;6988;52.614;13.500;2023-05-29T21:19:45;6.37;;;1.97;;
13834;SDS011;6988;52.614;13.500;2023-05-29T21:24:37;5.90;;;1.57;;
13834;SDS011;6988;52.614;13.500;2023-05-29T21:29:30;4.03;;;1.43;;
13834;SDS011;6988;52.614;13.500;2023-05-29T21:34:22;5.43;;;1.77;;
13834;SDS011;6988;52.614;13.500;2023-05-29T21:39:14;4.30;;;1.60;;
13834;SDS011;6988;52.614;13.500;2023-05-29T21:44:06;5.40;;;1.97;;
13834;SDS011;6988;52.614;13.500;2023-05-29T22:04:15;5.00;;;1.70;;
13834;SDS011;6988;52.614;13.500;2023-05-29T22:09:08;5.03;;;1.60;;
13834;SDS011;6988;52.614;13.500;2023-05-29T22:14:02;5.00;;;1.50;;
13834;SDS011;6988;52.614;13.500;2023-05-29T22:18:55;4.87;;;1.67;;
13834;SDS011;6988;52.614;13.500;2023-05-29T22:23:49;4.20;;;1.67;;
13834;SDS011;6988;52.614;13.500;2023-05-29T22:28:41;6.53;;;1.90;;
13834;SDS011;6988;52.614;13.500;2023-05-29T22:33:33;4.40;;;1.57;;
13834;SDS011;6988;52.614;13.500;2023-05-29T22:38:25;3.13;;;1.50;;
13834;SDS011;6988;52.614;13.500;2023-05-29T22:43:18;2.93;;;1.50;;
13834;SDS011;6988;52.614;13.500;2023-05-29T22:48:11;3.27;;;1.63;;
13834;SDS011;6988;52.614;13.500;2023-05-29T22:53:07;3.37;;;1.67;;
13834;SDS011;6988;52.614;13.500;2023-05-29T22:57:59;4.10;;;1.90;;
13834;SDS011;6988;52.614;13.500;2023-05-29T23:02:52;3.73;;;1.50;;
13834;SDS011;6988;52.614;13.500;2023-05-29T23:07:44;6.90;;;1.70;;
13834;SDS011;6988;52.614;13.500;2023-05-29T23:12:37;3.57;;;1.63;;
13834;SDS011;6988;52.614;13.500;2023-05-29T23:17:29;4.87;;;1.90;;
13834;SDS011;6988;52.614;13.500;2023-05-29T23:22:22;5.87;;;1.87;;
13834;SDS011;6988;52.614;13.500;2023-05-29T23:27:14;4.33;;;1.70;;
13834;SDS011;6988;52.614;13.500;2023-05-29T23:32:06;4.73;;;1.70;;
13834;SDS011;6988;52.614;13.500;2023-05-29T23:36:58;6.00;;;1.80;;
13834;SDS011;6988;52.614;13.500;2023-05-29T23:41:52;6.60;;;1.67;;
13834;SDS011;6988;52.614;13.500;2023-05-29T23:46:43;6.33;;;1.60;;
13834;SDS011;6988;52.614;13.500;2023-05-29T23:51:35;4.30;;;1.73;;
13834;SDS011;6988;52.614;13.500;2023-05-29T23:56:27;5.43;;;1.47;;
